createdAt,value
2017-12-11T00:01:59.650Z,79.10
2017-12-11T00:04:26.060Z,79.70
2017-12-11T00:06:52.460Z,79.60
2017-12-11T00:09:18.899Z,79.70
2017-12-11T00:11:46.070Z,80.40
2017-12-11T00:14:12.561Z,80.40
2017-12-11T00:16:38.966Z,79.50
2017-12-11T00:19:05.376Z,79.60
2017-12-11T00:21:31.773Z,79.70
2017-12-11T00:23:58.158Z,79.90
2017-12-11T00:26:24.590Z,81.00
2017-12-11T00:28:51.013Z,80.60
2017-12-11T00:31:17.571Z,80.70
2017-12-11T00:33:43.972Z,79.80
2017-12-11T00:36:10.412Z,79.40
2017-12-11T00:38:36.855Z,79.50
2017-12-11T00:41:03.318Z,79.20
2017-12-11T00:43:29.747Z,80.10
2017-12-11T00:45:56.336Z,80.70
2017-12-11T00:48:22.771Z,80.80
2017-12-11T00:50:49.197Z,81.30
2017-12-11T00:53:15.600Z,81.80
2017-12-11T00:55:42.015Z,82.00
2017-12-11T00:58:08.423Z,82.50
2017-12-11T01:00:34.828Z,81.50
2017-12-11T01:03:01.518Z,80.90
2017-12-11T01:05:27.931Z,80.40
2017-12-11T01:07:54.358Z,80.10
2017-12-11T01:10:20.808Z,80.50
2017-12-11T01:12:47.230Z,80.20
2017-12-11T01:15:13.632Z,80.30
2017-12-11T01:17:40.041Z,80.50
2017-12-11T01:20:06.430Z,80.80
2017-12-11T01:22:32.827Z,80.60
2017-12-11T01:24:59.234Z,82.00
2017-12-11T01:27:26.378Z,81.90
2017-12-11T01:29:52.752Z,81.90
2017-12-11T01:32:19.140Z,82.30
2017-12-11T01:34:45.532Z,81.70
2017-12-11T01:37:11.904Z,81.80
2017-12-11T01:39:38.430Z,82.20
2017-12-11T01:42:05.610Z,82.30
2017-12-11T01:44:32.780Z,82.10
2017-12-11T01:46:59.202Z,82.10
2017-12-11T01:49:25.664Z,82.50
2017-12-11T01:51:52.110Z,82.60
2017-12-11T01:54:18.539Z,82.30
2017-12-11T01:56:45.694Z,82.00
2017-12-11T01:59:12.092Z,81.50
2017-12-11T02:01:38.490Z,83.00
2017-12-11T02:04:04.886Z,82.80
2017-12-11T02:06:31.351Z,82.50
2017-12-11T02:08:58.494Z,81.80
2017-12-11T02:11:24.960Z,81.80
2017-12-11T02:13:51.370Z,82.00
2017-12-11T02:16:18.561Z,82.10
2017-12-11T02:18:45.078Z,82.10
2017-12-11T02:21:11.600Z,82.00
2017-12-11T02:23:39.966Z,81.10
2017-12-11T02:26:07.147Z,81.50
2017-12-11T02:28:33.597Z,81.40
2017-12-11T02:31:00.035Z,81.50
2017-12-11T02:33:26.474Z,81.10
2017-12-11T02:35:52.935Z,81.20
2017-12-11T02:38:19.358Z,81.10
2017-12-11T02:40:45.779Z,81.30
2017-12-11T02:43:12.226Z,80.80
2017-12-11T02:45:38.727Z,80.90
2017-12-11T02:48:05.151Z,81.10
2017-12-11T02:50:31.577Z,80.80
2017-12-11T02:52:58.032Z,80.60
2017-12-11T02:55:24.444Z,80.80
2017-12-11T02:57:50.863Z,81.30
2017-12-11T03:00:18.002Z,81.30
2017-12-11T03:02:45.173Z,81.10
2017-12-11T03:05:11.576Z,81.10
2017-12-11T03:07:38.006Z,81.10
2017-12-11T03:10:04.411Z,81.00
2017-12-11T03:12:30.885Z,81.10
2017-12-11T03:14:58.060Z,81.50
2017-12-11T03:17:24.499Z,81.50
2017-12-11T03:19:50.899Z,81.00
2017-12-11T03:22:18.033Z,81.00
2017-12-11T03:24:44.409Z,81.00
2017-12-11T03:27:10.834Z,81.30
2017-12-11T03:29:37.242Z,81.10
2017-12-11T03:32:03.685Z,80.90
2017-12-11T03:34:30.831Z,80.70
2017-12-11T03:36:57.974Z,80.40
2017-12-11T03:39:25.126Z,80.10
2017-12-11T03:41:52.291Z,80.50
2017-12-11T03:44:18.731Z,80.40
2017-12-11T03:46:45.171Z,80.20
2017-12-11T03:49:11.562Z,80.50
2017-12-11T03:51:37.963Z,80.50
2017-12-11T03:54:04.339Z,80.80
2017-12-11T03:56:31.454Z,80.70
2017-12-11T03:58:57.874Z,80.70
2017-12-11T04:01:24.340Z,81.90
2017-12-11T04:03:50.734Z,81.50
2017-12-11T04:06:17.171Z,81.60
2017-12-11T04:08:43.575Z,81.40
2017-12-11T04:11:09.963Z,81.40
2017-12-11T04:13:37.081Z,81.60
2017-12-11T04:16:03.451Z,81.60
2017-12-11T04:18:30.582Z,81.70
2017-12-11T04:20:57.015Z,81.60
2017-12-11T04:23:23.402Z,81.90
2017-12-11T04:25:49.805Z,82.40
2017-12-11T04:28:16.183Z,83.10
2017-12-11T04:30:42.566Z,83.30
2017-12-11T04:33:08.958Z,83.10
2017-12-11T04:35:35.353Z,84.80
2017-12-11T04:38:01.736Z,85.80
2017-12-11T04:40:28.118Z,84.40
2017-12-11T04:42:54.518Z,83.70
2017-12-11T04:45:20.912Z,83.20
2017-12-11T04:47:47.325Z,82.60
2017-12-11T04:50:13.719Z,81.90
2017-12-11T04:52:40.099Z,81.50
2017-12-11T04:55:06.513Z,81.30
2017-12-11T04:57:32.954Z,80.80
2017-12-11T04:59:59.333Z,80.70
2017-12-11T05:02:25.755Z,80.80
2017-12-11T05:04:52.162Z,81.20
2017-12-11T05:07:18.570Z,80.70
2017-12-11T05:09:44.954Z,80.80
2017-12-11T05:12:11.357Z,80.50
2017-12-11T05:14:40.230Z,80.20
2017-12-11T05:17:06.647Z,79.90
2017-12-11T05:19:33.817Z,80.00
2017-12-11T05:22:00.459Z,80.00
2017-12-11T05:24:26.888Z,79.80
2017-12-11T05:26:53.340Z,79.70
2017-12-11T05:29:19.749Z,80.20
2017-12-11T05:31:46.216Z,80.90
2017-12-11T05:34:12.640Z,81.20
2017-12-11T05:36:39.657Z,81.60
2017-12-11T05:39:06.105Z,82.30
2017-12-11T05:41:32.545Z,81.50
2017-12-11T05:43:58.988Z,81.50
2017-12-11T05:46:25.429Z,82.50
2017-12-11T05:48:53.383Z,83.20
2017-12-11T05:51:19.812Z,83.10
2017-12-11T05:53:46.252Z,84.40
2017-12-11T05:56:12.659Z,85.10
2017-12-11T05:58:39.101Z,85.30
2017-12-11T06:01:05.494Z,85.40
2017-12-11T06:03:31.899Z,85.40
2017-12-11T06:05:58.316Z,85.30
2017-12-11T06:08:24.718Z,85.60
2017-12-11T06:10:51.149Z,85.60
2017-12-11T06:13:18.295Z,85.90
2017-12-11T06:15:45.416Z,86.30
2017-12-11T06:18:11.787Z,86.30
2017-12-11T06:20:38.198Z,87.30
2017-12-11T06:23:05.440Z,88.60
2017-12-11T06:25:32.580Z,88.90
2017-12-11T06:27:59.720Z,89.20
2017-12-11T06:30:26.121Z,89.30
2017-12-11T06:32:52.514Z,89.60
2017-12-11T06:35:19.671Z,89.40
2017-12-11T06:37:46.110Z,89.40
2017-12-11T06:40:12.505Z,89.60
2017-12-11T06:42:39.653Z,89.50
2017-12-11T06:45:06.056Z,89.50
2017-12-11T06:47:32.448Z,89.50
2017-12-11T06:49:59.566Z,89.60
2017-12-11T06:52:26.052Z,89.40
2017-12-11T06:54:53.135Z,89.10
2017-12-11T06:57:19.525Z,89.10
2017-12-11T06:59:46.008Z,89.10
2017-12-11T07:02:12.391Z,88.70
2017-12-11T07:04:38.797Z,88.60
2017-12-11T07:07:05.913Z,88.70
2017-12-11T07:09:32.304Z,89.30
2017-12-11T07:11:58.692Z,89.20
2017-12-11T07:14:25.113Z,89.50
2017-12-11T07:16:51.532Z,90.00
2017-12-11T07:19:17.926Z,90.00
2017-12-11T07:21:44.332Z,89.70
2017-12-11T07:24:11.476Z,90.30
2017-12-11T07:26:37.884Z,90.30
2017-12-11T07:29:04.280Z,90.40
2017-12-11T07:31:30.656Z,90.50
2017-12-11T07:33:57.041Z,90.60
2017-12-11T07:36:23.442Z,90.70
2017-12-11T07:38:50.579Z,90.30
2017-12-11T07:41:16.985Z,90.30
2017-12-11T07:43:43.372Z,90.20
2017-12-11T07:46:10.506Z,90.00
2017-12-11T07:48:37.652Z,90.30
2017-12-11T07:51:04.775Z,90.20
2017-12-11T07:53:31.158Z,90.20
2017-12-11T07:55:57.564Z,90.20
2017-12-11T07:58:24.712Z,90.30
2017-12-11T08:00:52.003Z,90.30
2017-12-11T08:03:18.403Z,90.30
2017-12-11T08:05:45.522Z,90.30
2017-12-11T08:08:11.904Z,90.30
2017-12-11T08:10:38.311Z,90.10
2017-12-11T08:13:04.719Z,90.00
2017-12-11T08:15:31.167Z,90.10
2017-12-11T08:17:57.555Z,89.30
2017-12-11T08:20:23.967Z,88.70
2017-12-11T08:22:50.377Z,88.20
2017-12-11T08:25:16.810Z,88.00
2017-12-11T08:27:43.942Z,88.50
2017-12-11T08:30:11.089Z,89.10
2017-12-11T08:32:38.228Z,89.10
2017-12-11T08:35:04.624Z,89.10
2017-12-11T08:37:31.004Z,89.30
2017-12-11T08:39:58.867Z,90.00
2017-12-11T08:42:25.249Z,90.00
2017-12-11T08:44:51.631Z,89.80
2017-12-11T08:47:18.031Z,89.50
2017-12-11T08:49:44.422Z,89.30
2017-12-11T08:52:11.547Z,89.20
2017-12-11T08:54:37.944Z,89.10
2017-12-11T08:57:04.328Z,89.10
2017-12-11T08:59:31.463Z,88.10
2017-12-11T09:01:57.856Z,88.10
2017-12-11T09:04:24.244Z,87.60
2017-12-11T09:06:51.408Z,89.90
2017-12-11T09:09:17.822Z,89.90
2017-12-11T09:11:44.969Z,89.30
2017-12-11T09:14:12.091Z,90.00
2017-12-11T09:16:40.328Z,89.50
2017-12-11T09:19:06.724Z,90.40
2017-12-11T09:21:33.972Z,90.80
2017-12-11T09:24:00.409Z,90.80
2017-12-11T09:26:27.531Z,91.10
2017-12-11T09:28:54.706Z,90.90
2017-12-11T09:31:21.997Z,90.50
2017-12-11T09:33:48.408Z,90.50
2017-12-11T09:36:15.546Z,90.20
2017-12-11T09:38:41.902Z,90.20
2017-12-11T09:41:08.310Z,90.20
2017-12-11T09:43:35.463Z,90.10
2017-12-11T09:46:02.654Z,89.80
2017-12-11T09:48:29.062Z,89.70
2017-12-11T09:50:55.493Z,90.00
2017-12-11T09:53:21.905Z,90.30
2017-12-11T09:55:49.052Z,89.20
2017-12-11T09:58:16.225Z,88.50
2017-12-11T10:00:42.610Z,88.50
2017-12-11T10:03:09.062Z,88.80
2017-12-11T10:05:36.203Z,90.00
2017-12-11T10:08:02.612Z,89.60
2017-12-11T10:10:29.030Z,89.80
2017-12-11T10:12:55.434Z,89.90
2017-12-11T10:15:22.562Z,90.20
2017-12-11T10:17:49.707Z,89.90
2017-12-11T10:20:16.097Z,89.90
2017-12-11T10:22:42.497Z,90.10
2017-12-11T10:25:08.957Z,89.10
2017-12-11T10:27:35.365Z,88.90
2017-12-11T10:30:01.765Z,88.90
2017-12-11T10:32:28.139Z,89.50
2017-12-11T10:34:54.529Z,90.10
2017-12-11T10:37:20.918Z,90.10
2017-12-11T10:39:47.320Z,89.30
2017-12-11T10:42:14.450Z,89.20
2017-12-11T10:44:41.568Z,89.20
2017-12-11T10:47:07.957Z,89.20
2017-12-11T10:49:34.378Z,89.80
2017-12-11T10:52:00.826Z,89.60
2017-12-11T10:54:27.224Z,89.20
2017-12-11T10:56:54.403Z,88.30
2017-12-11T10:59:20.809Z,88.30
2017-12-11T11:01:47.962Z,87.50
2017-12-11T11:04:15.082Z,87.70
2017-12-11T11:06:41.527Z,87.60
2017-12-11T11:09:09.421Z,87.80
2017-12-11T11:11:36.559Z,87.20
2017-12-11T11:14:02.983Z,87.10
2017-12-11T11:16:30.203Z,88.70
2017-12-11T11:18:56.586Z,88.70
2017-12-11T11:21:23.705Z,89.10
2017-12-11T11:23:50.147Z,89.10
2017-12-11T11:26:16.672Z,89.10
2017-12-11T11:28:43.181Z,89.20
2017-12-11T11:31:09.584Z,88.50
2017-12-11T11:33:35.996Z,88.40
2017-12-11T11:36:03.130Z,87.80
2017-12-11T11:38:29.535Z,87.70
2017-12-11T11:40:55.928Z,89.10
2017-12-11T11:43:22.331Z,88.90
2017-12-11T11:45:50.240Z,88.70
2017-12-11T11:48:16.611Z,88.70
2017-12-11T11:50:43.001Z,88.20
2017-12-11T11:53:09.438Z,88.50
2017-12-11T11:55:35.880Z,88.90
2017-12-11T11:58:02.314Z,88.90
2017-12-11T12:00:28.747Z,89.10
2017-12-11T12:02:55.154Z,88.60
2017-12-11T12:05:34.865Z,88.40
2017-12-11T12:08:01.262Z,87.90
2017-12-11T12:10:41.007Z,89.20
2017-12-11T12:13:07.561Z,88.90
2017-12-11T12:15:34.018Z,88.30
2017-12-11T12:18:00.427Z,88.30
2017-12-11T12:20:26.824Z,87.90
2017-12-11T12:22:53.320Z,87.70
2017-12-11T12:25:20.488Z,87.30
2017-12-11T12:27:46.900Z,87.30
2017-12-11T12:30:14.142Z,87.80
2017-12-11T12:32:40.542Z,87.70
2017-12-11T12:35:06.981Z,87.70
2017-12-11T12:37:33.386Z,87.90
2017-12-11T12:39:59.803Z,87.80
2017-12-11T12:42:26.959Z,88.60
2017-12-11T12:44:53.392Z,88.50
2017-12-11T12:47:19.842Z,88.90
2017-12-11T12:49:46.259Z,89.00
2017-12-11T12:52:12.648Z,88.90
2017-12-11T12:54:39.055Z,88.10
2017-12-11T12:57:05.456Z,88.00
2017-12-11T12:59:31.854Z,88.90
2017-12-11T13:01:58.239Z,89.30
2017-12-11T13:04:24.615Z,89.60
2017-12-11T13:06:51.108Z,89.00
2017-12-11T13:09:17.502Z,88.60
2017-12-11T13:11:43.933Z,88.90
2017-12-11T13:14:10.387Z,89.00
2017-12-11T13:16:36.879Z,88.30
2017-12-11T13:19:03.999Z,90.00
2017-12-11T13:21:30.390Z,90.00
2017-12-11T13:23:57.545Z,90.10
2017-12-11T13:26:24.010Z,90.10
2017-12-11T13:28:50.407Z,90.10
2017-12-11T13:31:16.851Z,90.30
2017-12-11T13:33:43.306Z,90.90
2017-12-11T13:36:09.713Z,90.30
2017-12-11T13:38:36.093Z,90.50
2017-12-11T13:41:02.474Z,90.70
2017-12-11T13:43:29.599Z,90.40
2017-12-11T13:45:57.450Z,90.40
2017-12-11T13:48:23.856Z,90.40
2017-12-11T13:50:50.258Z,90.10
2017-12-11T13:53:16.636Z,90.00
2017-12-11T13:55:43.014Z,90.20
2017-12-11T13:58:09.442Z,90.10
2017-12-11T14:00:36.596Z,89.70
2017-12-11T14:03:03.726Z,90.20
2017-12-11T14:05:30.203Z,90.20
2017-12-11T14:07:56.597Z,90.30
2017-12-11T14:10:23.739Z,88.30
2017-12-11T14:12:50.128Z,88.30
2017-12-11T14:15:16.520Z,87.20
2017-12-11T14:17:43.663Z,86.50
2017-12-11T14:20:10.136Z,85.90
2017-12-11T14:22:36.551Z,86.40
2017-12-11T14:25:02.950Z,86.30
2017-12-11T14:27:30.098Z,87.60
2017-12-11T14:29:57.216Z,88.00
2017-12-11T14:32:23.663Z,87.90
2017-12-11T14:34:50.173Z,87.30
2017-12-11T14:37:17.343Z,88.00
2017-12-11T14:39:43.744Z,88.00
2017-12-11T14:42:10.176Z,88.80
2017-12-11T14:44:36.631Z,90.30
2017-12-11T14:47:03.073Z,90.10
2017-12-11T14:49:29.533Z,90.20
2017-12-11T14:51:55.973Z,89.90
2017-12-11T14:54:22.379Z,89.60
2017-12-11T14:56:53.834Z,89.10
2017-12-11T14:59:20.235Z,89.00
2017-12-11T15:01:46.630Z,89.10
2017-12-11T15:04:13.763Z,89.80
2017-12-11T15:06:40.933Z,90.00
2017-12-11T15:09:08.059Z,89.70
2017-12-11T15:11:35.199Z,88.80
2017-12-11T15:14:01.623Z,88.80
2017-12-11T15:16:28.036Z,88.60
2017-12-11T15:18:54.444Z,88.90
2017-12-11T15:21:20.863Z,90.40
2017-12-11T15:23:48.156Z,90.60
2017-12-11T15:26:14.547Z,90.60
2017-12-11T15:28:40.963Z,90.60
2017-12-11T15:31:08.142Z,91.00
2017-12-11T15:33:34.666Z,91.00
2017-12-11T15:36:01.107Z,91.80
2017-12-11T15:38:27.510Z,91.10
2017-12-11T15:40:53.938Z,91.10
2017-12-11T15:43:21.156Z,88.60
2017-12-11T15:45:47.576Z,88.60
2017-12-11T15:48:13.998Z,88.00
2017-12-11T15:50:40.411Z,88.40
2017-12-11T15:53:06.844Z,88.90
2017-12-11T15:55:33.996Z,90.10
2017-12-11T15:58:00.405Z,90.10
2017-12-11T16:00:27.619Z,90.20
2017-12-11T16:02:54.081Z,90.20
2017-12-11T16:05:21.981Z,89.30
2017-12-11T16:07:49.132Z,89.60
2017-12-11T16:10:15.580Z,89.60
2017-12-11T16:12:42.000Z,90.00
2017-12-11T16:15:08.382Z,89.00
2017-12-11T16:17:34.783Z,89.20
2017-12-11T16:20:01.166Z,88.00
2017-12-11T16:22:28.340Z,88.60
2017-12-11T16:24:55.485Z,88.50
2017-12-11T16:27:22.647Z,88.40
2017-12-11T16:29:49.316Z,88.40
2017-12-11T16:32:15.734Z,89.00
2017-12-11T16:34:42.210Z,88.00
2017-12-11T16:37:09.363Z,88.20
2017-12-11T16:39:37.230Z,89.60
2017-12-11T16:42:04.408Z,89.40
2017-12-11T16:44:30.826Z,89.40
2017-12-11T16:46:57.983Z,88.10
2017-12-11T16:49:25.143Z,88.00
2017-12-11T16:51:52.292Z,87.20
2017-12-11T16:54:19.463Z,86.40
2017-12-11T16:56:45.878Z,86.40
2017-12-11T16:59:13.244Z,85.20
2017-12-11T17:01:39.673Z,84.70
2017-12-11T17:04:06.076Z,84.00
2017-12-11T17:06:32.528Z,83.70
2017-12-11T17:08:58.966Z,83.70
2017-12-11T17:11:25.376Z,82.60
2017-12-11T17:13:56.809Z,83.10
2017-12-11T17:16:23.244Z,83.90
2017-12-11T17:18:49.608Z,84.80
2017-12-11T17:21:16.052Z,84.90
2017-12-11T17:23:42.447Z,84.90
2017-12-11T17:26:08.857Z,85.20
2017-12-11T17:28:35.269Z,84.90
2017-12-11T17:31:01.658Z,85.10
2017-12-11T17:33:28.840Z,85.10
2017-12-11T17:35:55.227Z,85.10
2017-12-11T17:38:21.688Z,85.00
2017-12-11T17:40:48.128Z,85.10
2017-12-11T17:43:14.623Z,84.90
2017-12-11T17:45:41.051Z,84.70
2017-12-11T17:48:07.468Z,84.50
2017-12-11T17:50:33.887Z,84.30
2017-12-11T17:53:00.340Z,84.40
2017-12-11T17:55:26.798Z,84.50
2017-12-11T17:57:53.970Z,84.00
2017-12-11T18:00:21.073Z,84.00
2017-12-11T18:02:47.473Z,84.00
2017-12-11T18:05:13.866Z,84.00
2017-12-11T18:07:41.028Z,83.90
2017-12-11T18:10:07.440Z,83.80
2017-12-11T18:12:34.682Z,83.10
2017-12-11T18:15:01.052Z,83.10
2017-12-11T18:17:27.463Z,83.70
2017-12-11T18:19:54.598Z,83.30
2017-12-11T18:22:22.454Z,83.50
2017-12-11T18:24:48.846Z,83.50
2017-12-11T18:27:15.266Z,83.20
2017-12-11T18:29:41.646Z,83.10
2017-12-11T18:32:08.051Z,83.20
2017-12-11T18:34:35.211Z,82.70
2017-12-11T18:37:01.630Z,82.70
2017-12-11T18:39:28.071Z,82.40
2017-12-11T18:41:54.462Z,82.20
2017-12-11T18:44:20.871Z,82.20
2017-12-11T18:46:47.246Z,81.80
2017-12-11T18:49:13.612Z,81.40
2017-12-11T18:51:40.027Z,81.70
2017-12-11T18:54:06.499Z,81.60
2017-12-11T18:56:32.927Z,81.70
2017-12-11T18:58:59.367Z,82.10
2017-12-11T19:01:25.810Z,81.90
2017-12-11T19:03:52.239Z,81.70
2017-12-11T19:06:18.652Z,81.50
2017-12-11T19:08:46.531Z,81.30
2017-12-11T19:11:12.939Z,81.30
2017-12-11T19:13:40.910Z,81.80
2017-12-11T19:16:07.399Z,82.30
2017-12-11T19:18:34.550Z,82.50
2017-12-11T19:21:00.992Z,82.50
2017-12-11T19:23:27.439Z,82.80
2017-12-11T19:25:53.830Z,82.40
2017-12-11T19:28:20.245Z,81.80
2017-12-11T19:30:46.642Z,81.20
2017-12-11T19:33:13.049Z,80.50
2017-12-11T19:35:39.449Z,81.00
2017-12-11T19:38:06.618Z,81.50
2017-12-11T19:40:33.797Z,81.10
2017-12-11T19:43:00.315Z,81.00
2017-12-11T19:45:26.721Z,81.20
2017-12-11T19:47:53.154Z,81.10
2017-12-11T19:50:19.640Z,81.10
2017-12-11T19:52:46.047Z,80.80
2017-12-11T19:55:13.184Z,80.30
2017-12-11T19:57:40.371Z,79.50
2017-12-11T20:00:06.770Z,79.50
2017-12-11T20:02:33.977Z,76.60
2017-12-11T20:05:00.390Z,76.60
2017-12-11T20:07:26.788Z,77.50
2017-12-11T20:09:53.915Z,78.10
2017-12-11T20:12:20.334Z,78.00
2017-12-11T20:14:46.716Z,78.10
2017-12-11T20:17:13.264Z,77.70
2017-12-11T20:19:39.643Z,77.50
2017-12-11T20:22:06.974Z,77.70
2017-12-11T20:24:33.438Z,77.40
2017-12-11T20:26:59.820Z,77.10
2017-12-11T20:29:26.210Z,76.40
2017-12-11T20:31:53.343Z,76.60
2017-12-11T20:34:19.732Z,76.60
2017-12-11T20:36:46.137Z,76.80
2017-12-11T20:39:13.247Z,76.80
2017-12-11T20:41:39.624Z,76.80
2017-12-11T20:44:06.084Z,76.30
2017-12-11T20:46:32.486Z,76.50
2017-12-11T20:48:58.920Z,76.90
2017-12-11T20:51:25.312Z,76.70
2017-12-11T20:53:51.703Z,76.30
2017-12-11T20:56:18.138Z,76.80
2017-12-11T20:58:44.529Z,77.50
2017-12-11T21:01:12.566Z,77.80
2017-12-11T21:03:38.995Z,76.90
2017-12-11T21:06:05.425Z,77.50
2017-12-11T21:08:31.925Z,77.30
2017-12-11T21:10:58.357Z,77.50
2017-12-11T21:13:24.765Z,77.50
2017-12-11T21:15:51.935Z,77.90
2017-12-11T21:18:18.382Z,77.90
2017-12-11T21:20:44.798Z,78.20
2017-12-11T21:23:11.944Z,78.40
2017-12-11T21:25:39.110Z,78.50
2017-12-11T21:28:05.539Z,79.50
2017-12-11T21:30:31.973Z,78.50
2017-12-11T21:32:58.384Z,78.40
2017-12-11T21:35:25.571Z,79.80
2017-12-11T21:37:52.058Z,79.80
2017-12-11T21:40:18.435Z,79.80
2017-12-11T21:42:44.877Z,78.50
2017-12-11T21:45:11.308Z,78.70
2017-12-11T21:47:37.708Z,79.40
2017-12-11T21:50:04.971Z,79.10
2017-12-11T21:52:31.398Z,79.00
2017-12-11T21:54:58.611Z,79.20
2017-12-11T21:57:25.258Z,79.10
2017-12-11T21:59:52.479Z,80.80
2017-12-11T22:02:18.871Z,80.80
2017-12-11T22:04:45.387Z,80.70
2017-12-11T22:07:12.531Z,80.90
2017-12-11T22:09:39.685Z,81.00
2017-12-11T22:12:06.928Z,79.90
2017-12-11T22:14:33.550Z,80.00
2017-12-11T22:16:59.992Z,79.60
2017-12-11T22:19:26.418Z,79.50
2017-12-11T22:21:52.887Z,79.50
2017-12-11T22:24:20.054Z,79.60
2017-12-11T22:26:46.496Z,79.60
2017-12-11T22:29:12.980Z,79.40
2017-12-11T22:31:39.398Z,79.20
2017-12-11T22:34:05.819Z,79.40
2017-12-11T22:36:32.239Z,79.10
2017-12-11T22:38:58.713Z,80.10
2017-12-11T22:41:25.851Z,79.60
2017-12-11T22:43:52.235Z,79.60
2017-12-11T22:46:18.598Z,80.00
2017-12-11T22:48:44.994Z,80.10
2017-12-11T22:51:11.379Z,80.60
2017-12-11T22:53:37.827Z,80.90
2017-12-11T22:56:05.014Z,82.20
2017-12-11T22:58:31.481Z,82.20
2017-12-11T23:00:57.940Z,83.90
2017-12-11T23:03:24.338Z,82.80
2017-12-11T23:05:50.856Z,83.10
2017-12-11T23:08:17.257Z,83.40
2017-12-11T23:10:44.382Z,85.50
2017-12-11T23:13:10.788Z,85.40
2017-12-11T23:15:37.167Z,85.40
2017-12-11T23:18:04.435Z,85.50
2017-12-11T23:20:36.896Z,85.50
2017-12-11T23:25:38.156Z,85.90
2017-12-11T23:28:05.278Z,86.30
2017-12-11T23:30:31.684Z,86.20
2017-12-11T23:32:58.063Z,86.90
2017-12-11T23:35:24.453Z,86.90
2017-12-11T23:37:50.860Z,87.40
2017-12-11T23:40:17.229Z,86.70
2017-12-11T23:42:43.621Z,86.50
2017-12-11T23:45:09.994Z,86.60
2017-12-11T23:47:36.377Z,87.20
2017-12-11T23:50:03.522Z,87.30
2017-12-11T23:52:30.635Z,87.40
2017-12-11T23:54:57.082Z,87.40
2017-12-11T23:57:23.446Z,88.10
2017-12-11T23:59:49.819Z,87.90
